Kennydale, Washington
Current Conditions -  °F | °C
As of 6:53 AM on Wednesday 22 Oct 2014 (Local Time) from KRNT Reporting Station
Light Rain Light Rain  
Wind Chill: 56°   Ceiling: 3400
Heat Index: 56°   Visibility: 5mi
Dew Point: 54°   Wind: 6mph
Humidity: 93%   Direction: 120°ESE
Pressure: 29.69"   Gusts: NA
Location:  47.5152°N, 122.184°W
Report Text: KRNT 221353Z 12005KT 5SM -RA BR BKN034 BKN041 OVC050 13/12 A2969 RMK AO2 SLP058 P0007 T01330122
Loading
Personal Weather Stations






























Interactive Weather Map
Tropical Storm Tracking
New forecast layout! Learn more

10-Day Weather Forecast

Advertisements
Track Severe Weather on mobile